sensor_id;sensor_type;location;lat;lon;timestamp;P1;durP1;ratioP1;P2;durP2;ratioP2
17340;SDS011;8788;49.930;8.660;2023-07-09T00:01:51;5.88;;;2.70;;
17340;SDS011;8788;49.930;8.660;2023-07-09T00:04:20;3.38;;;2.17;;
17340;SDS011;8788;49.930;8.660;2023-07-09T00:06:47;4.00;;;2.55;;
17340;SDS011;8788;49.930;8.660;2023-07-09T00:09:15;4.03;;;2.80;;
17340;SDS011;8788;49.930;8.660;2023-07-09T00:11:44;4.38;;;2.50;;
17340;SDS011;8788;49.930;8.660;2023-07-09T00:14:11;8.68;;;2.50;;
17340;SDS011;8788;49.930;8.660;2023-07-09T00:16:40;4.30;;;2.50;;
17340;SDS011;8788;49.930;8.660;2023-07-09T00:19:10;2.58;;;2.38;;
17340;SDS011;8788;49.930;8.660;2023-07-09T00:21:42;4.68;;;2.67;;
17340;SDS011;8788;49.930;8.660;2023-07-09T00:24:10;3.53;;;2.50;;
17340;SDS011;8788;49.930;8.660;2023-07-09T00:26:37;7.03;;;2.63;;
17340;SDS011;8788;49.930;8.660;2023-07-09T00:29:07;3.78;;;2.53;;
17340;SDS011;8788;49.930;8.660;2023-07-09T00:31:36;3.47;;;2.80;;
17340;SDS011;8788;49.930;8.660;2023-07-09T00:34:08;2.67;;;2.25;;
17340;SDS011;8788;49.930;8.660;2023-07-09T00:36:37;3.38;;;2.50;;
17340;SDS011;8788;49.930;8.660;2023-07-09T00:39:08;3.15;;;2.50;;
17340;SDS011;8788;49.930;8.660;2023-07-09T00:41:41;4.07;;;2.78;;
17340;SDS011;8788;49.930;8.660;2023-07-09T00:44:24;3.75;;;2.60;;
17340;SDS011;8788;49.930;8.660;2023-07-09T00:47:13;4.90;;;2.50;;
17340;SDS011;8788;49.930;8.660;2023-07-09T00:50:06;2.47;;;2.25;;
17340;SDS011;8788;49.930;8.660;2023-07-09T00:52:39;4.00;;;2.42;;
17340;SDS011;8788;49.930;8.660;2023-07-09T00:55:15;5.70;;;2.55;;
17340;SDS011;8788;49.930;8.660;2023-07-09T00:57:47;4.55;;;3.53;;
17340;SDS011;8788;49.930;8.660;2023-07-09T01:00:21;3.38;;;2.65;;
17340;SDS011;8788;49.930;8.660;2023-07-09T01:02:53;5.43;;;2.72;;
17340;SDS011;8788;49.930;8.660;2023-07-09T01:05:20;2.60;;;2.40;;
17340;SDS011;8788;49.930;8.660;2023-07-09T01:07:48;3.95;;;2.25;;
17340;SDS011;8788;49.930;8.660;2023-07-09T01:10:16;4.53;;;2.53;;
17340;SDS011;8788;49.930;8.660;2023-07-09T01:12:45;4.18;;;2.75;;
17340;SDS011;8788;49.930;8.660;2023-07-09T01:15:14;3.08;;;2.42;;
17340;SDS011;8788;49.930;8.660;2023-07-09T01:17:41;4.82;;;2.67;;
17340;SDS011;8788;49.930;8.660;2023-07-09T01:20:14;3.05;;;2.28;;
17340;SDS011;8788;49.930;8.660;2023-07-09T01:22:48;5.25;;;2.47;;
17340;SDS011;8788;49.930;8.660;2023-07-09T01:25:25;6.78;;;3.70;;
17340;SDS011;8788;49.930;8.660;2023-07-09T01:27:54;5.90;;;3.00;;
17340;SDS011;8788;49.930;8.660;2023-07-09T01:30:24;3.90;;;2.70;;
17340;SDS011;8788;49.930;8.660;2023-07-09T01:32:55;3.65;;;2.25;;
17340;SDS011;8788;49.930;8.660;2023-07-09T01:35:24;5.88;;;2.90;;
17340;SDS011;8788;49.930;8.660;2023-07-09T01:37:54;4.88;;;3.15;;
17340;SDS011;8788;49.930;8.660;2023-07-09T01:40:22;3.58;;;2.95;;
17340;SDS011;8788;49.930;8.660;2023-07-09T01:42:52;4.88;;;2.60;;
17340;SDS011;8788;49.930;8.660;2023-07-09T01:45:23;8.82;;;2.80;;
17340;SDS011;8788;49.930;8.660;2023-07-09T01:47:51;4.05;;;2.78;;
17340;SDS011;8788;49.930;8.660;2023-07-09T01:50:20;4.97;;;2.70;;
17340;SDS011;8788;49.930;8.660;2023-07-09T01:52:49;4.72;;;2.80;;
17340;SDS011;8788;49.930;8.660;2023-07-09T01:55:18;6.95;;;2.95;;
17340;SDS011;8788;49.930;8.660;2023-07-09T01:57:45;3.10;;;2.80;;
17340;SDS011;8788;49.930;8.660;2023-07-09T02:00:14;4.50;;;2.85;;
17340;SDS011;8788;49.930;8.660;2023-07-09T02:02:43;6.00;;;3.42;;
17340;SDS011;8788;49.930;8.660;2023-07-09T02:05:12;3.60;;;2.92;;
17340;SDS011;8788;49.930;8.660;2023-07-09T02:07:40;3.33;;;2.58;;
17340;SDS011;8788;49.930;8.660;2023-07-09T02:10:08;4.78;;;3.03;;
17340;SDS011;8788;49.930;8.660;2023-07-09T02:12:37;5.28;;;2.97;;
17340;SDS011;8788;49.930;8.660;2023-07-09T02:15:05;5.25;;;2.90;;
17340;SDS011;8788;49.930;8.660;2023-07-09T02:17:33;6.10;;;3.30;;
17340;SDS011;8788;49.930;8.660;2023-07-09T02:20:00;7.00;;;3.20;;
17340;SDS011;8788;49.930;8.660;2023-07-09T02:22:28;5.18;;;3.03;;
17340;SDS011;8788;49.930;8.660;2023-07-09T02:24:57;4.10;;;3.00;;
17340;SDS011;8788;49.930;8.660;2023-07-09T02:27:24;4.85;;;3.08;;
17340;SDS011;8788;49.930;8.660;2023-07-09T02:29:52;5.30;;;2.85;;
17340;SDS011;8788;49.930;8.660;2023-07-09T02:32:22;3.00;;;2.63;;
17340;SDS011;8788;49.930;8.660;2023-07-09T02:34:51;3.17;;;2.85;;
17340;SDS011;8788;49.930;8.660;2023-07-09T02:37:19;3.92;;;2.80;;
17340;SDS011;8788;49.930;8.660;2023-07-09T02:39:47;3.00;;;2.60;;
17340;SDS011;8788;49.930;8.660;2023-07-09T02:42:15;5.97;;;2.88;;
17340;SDS011;8788;49.930;8.660;2023-07-09T02:44:43;4.30;;;2.70;;
17340;SDS011;8788;49.930;8.660;2023-07-09T02:47:13;3.67;;;2.67;;
17340;SDS011;8788;49.930;8.660;2023-07-09T02:49:41;4.70;;;2.38;;
17340;SDS011;8788;49.930;8.660;2023-07-09T02:52:08;6.95;;;2.60;;
17340;SDS011;8788;49.930;8.660;2023-07-09T02:54:35;3.08;;;2.30;;
17340;SDS011;8788;49.930;8.660;2023-07-09T02:57:03;3.88;;;2.67;;
17340;SDS011;8788;49.930;8.660;2023-07-09T02:59:30;6.47;;;2.92;;
17340;SDS011;8788;49.930;8.660;2023-07-09T03:01:58;3.25;;;2.78;;
17340;SDS011;8788;49.930;8.660;2023-07-09T03:04:27;3.63;;;2.85;;
17340;SDS011;8788;49.930;8.660;2023-07-09T03:06:56;7.38;;;3.55;;
17340;SDS011;8788;49.930;8.660;2023-07-09T03:09:25;4.32;;;2.65;;
17340;SDS011;8788;49.930;8.660;2023-07-09T03:11:52;4.47;;;2.97;;
17340;SDS011;8788;49.930;8.660;2023-07-09T03:14:20;3.88;;;2.40;;
17340;SDS011;8788;49.930;8.660;2023-07-09T03:16:47;3.67;;;3.15;;
17340;SDS011;8788;49.930;8.660;2023-07-09T03:19:14;4.57;;;3.15;;
17340;SDS011;8788;49.930;8.660;2023-07-09T03:21:43;4.93;;;2.70;;
17340;SDS011;8788;49.930;8.660;2023-07-09T03:24:10;3.08;;;2.60;;
17340;SDS011;8788;49.930;8.660;2023-07-09T03:26:43;4.88;;;3.10;;
17340;SDS011;8788;49.930;8.660;2023-07-09T03:29:11;4.97;;;3.05;;
17340;SDS011;8788;49.930;8.660;2023-07-09T03:31:38;3.40;;;3.10;;
17340;SDS011;8788;49.930;8.660;2023-07-09T03:34:06;4.57;;;2.72;;
17340;SDS011;8788;49.930;8.660;2023-07-09T03:36:33;5.20;;;3.22;;
17340;SDS011;8788;49.930;8.660;2023-07-09T03:39:04;8.60;;;3.58;;
17340;SDS011;8788;49.930;8.660;2023-07-09T03:41:31;3.90;;;3.38;;
17340;SDS011;8788;49.930;8.660;2023-07-09T03:43:59;5.57;;;3.70;;
17340;SDS011;8788;49.930;8.660;2023-07-09T03:46:26;3.85;;;3.35;;
17340;SDS011;8788;49.930;8.660;2023-07-09T03:48:53;5.43;;;3.03;;
17340;SDS011;8788;49.930;8.660;2023-07-09T03:51:20;9.13;;;3.88;;
17340;SDS011;8788;49.930;8.660;2023-07-09T03:53:47;8.45;;;3.83;;
17340;SDS011;8788;49.930;8.660;2023-07-09T03:56:15;10.02;;;3.47;;
17340;SDS011;8788;49.930;8.660;2023-07-09T03:58:42;5.53;;;3.17;;
17340;SDS011;8788;49.930;8.660;2023-07-09T04:01:09;6.05;;;3.83;;
17340;SDS011;8788;49.930;8.660;2023-07-09T04:03:36;5.28;;;3.55;;
17340;SDS011;8788;49.930;8.660;2023-07-09T04:06:03;5.38;;;3.33;;
17340;SDS011;8788;49.930;8.660;2023-07-09T04:08:31;4.60;;;3.17;;
17340;SDS011;8788;49.930;8.660;2023-07-09T04:10:58;5.20;;;3.28;;
17340;SDS011;8788;49.930;8.660;2023-07-09T04:13:27;5.18;;;3.58;;
17340;SDS011;8788;49.930;8.660;2023-07-09T04:15:55;5.15;;;3.55;;
17340;SDS011;8788;49.930;8.660;2023-07-09T04:18:22;3.90;;;3.42;;
17340;SDS011;8788;49.930;8.660;2023-07-09T04:20:49;6.57;;;3.55;;
17340;SDS011;8788;49.930;8.660;2023-07-09T04:23:17;6.93;;;3.28;;
17340;SDS011;8788;49.930;8.660;2023-07-09T04:25:45;3.22;;;2.90;;
17340;SDS011;8788;49.930;8.660;2023-07-09T04:28:12;4.18;;;3.30;;
17340;SDS011;8788;49.930;8.660;2023-07-09T04:30:46;5.68;;;3.45;;
17340;SDS011;8788;49.930;8.660;2023-07-09T04:33:14;3.97;;;3.38;;
17340;SDS011;8788;49.930;8.660;2023-07-09T04:35:43;6.18;;;3.67;;
17340;SDS011;8788;49.930;8.660;2023-07-09T04:38:11;4.10;;;3.53;;
17340;SDS011;8788;49.930;8.660;2023-07-09T04:40:38;3.38;;;3.00;;
17340;SDS011;8788;49.930;8.660;2023-07-09T04:43:05;6.78;;;3.53;;
17340;SDS011;8788;49.930;8.660;2023-07-09T04:45:32;6.25;;;3.13;;
17340;SDS011;8788;49.930;8.660;2023-07-09T04:48:02;5.05;;;2.95;;
17340;SDS011;8788;49.930;8.660;2023-07-09T04:50:29;5.70;;;3.25;;
17340;SDS011;8788;49.930;8.660;2023-07-09T04:52:56;5.85;;;3.25;;
17340;SDS011;8788;49.930;8.660;2023-07-09T04:55:23;4.43;;;3.10;;
17340;SDS011;8788;49.930;8.660;2023-07-09T04:57:51;5.40;;;3.58;;
17340;SDS011;8788;49.930;8.660;2023-07-09T05:00:19;6.82;;;3.50;;
17340;SDS011;8788;49.930;8.660;2023-07-09T05:02:46;4.13;;;3.35;;
17340;SDS011;8788;49.930;8.660;2023-07-09T05:05:14;5.15;;;3.17;;
17340;SDS011;8788;49.930;8.660;2023-07-09T05:07:41;5.05;;;3.40;;
17340;SDS011;8788;49.930;8.660;2023-07-09T05:10:09;4.47;;;3.33;;
17340;SDS011;8788;49.930;8.660;2023-07-09T05:12:46;4.15;;;3.45;;
17340;SDS011;8788;49.930;8.660;2023-07-09T05:15:15;4.65;;;3.13;;
17340;SDS011;8788;49.930;8.660;2023-07-09T05:17:43;4.28;;;3.17;;
17340;SDS011;8788;49.930;8.660;2023-07-09T05:20:10;5.45;;;3.15;;
17340;SDS011;8788;49.930;8.660;2023-07-09T05:22:39;7.25;;;3.15;;
17340;SDS011;8788;49.930;8.660;2023-07-09T05:25:06;5.85;;;3.45;;
17340;SDS011;8788;49.930;8.660;2023-07-09T05:27:34;3.53;;;2.90;;
17340;SDS011;8788;49.930;8.660;2023-07-09T05:30:01;5.68;;;3.38;;
17340;SDS011;8788;49.930;8.660;2023-07-09T05:32:29;6.43;;;3.15;;
17340;SDS011;8788;49.930;8.660;2023-07-09T05:34:56;4.82;;;3.40;;
17340;SDS011;8788;49.930;8.660;2023-07-09T05:37:23;4.13;;;3.47;;
17340;SDS011;8788;49.930;8.660;2023-07-09T05:39:52;5.65;;;4.03;;
17340;SDS011;8788;49.930;8.660;2023-07-09T05:42:19;4.35;;;3.38;;
17340;SDS011;8788;49.930;8.660;2023-07-09T05:44:46;5.60;;;3.58;;
17340;SDS011;8788;49.930;8.660;2023-07-09T05:47:13;7.32;;;3.63;;
17340;SDS011;8788;49.930;8.660;2023-07-09T05:49:40;5.80;;;3.25;;
17340;SDS011;8788;49.930;8.660;2023-07-09T05:52:08;7.55;;;3.75;;
17340;SDS011;8788;49.930;8.660;2023-07-09T05:54:35;4.30;;;3.55;;
17340;SDS011;8788;49.930;8.660;2023-07-09T05:57:03;5.75;;;3.92;;
17340;SDS011;8788;49.930;8.660;2023-07-09T05:59:31;9.25;;;4.10;;
17340;SDS011;8788;49.930;8.660;2023-07-09T06:01:58;7.25;;;4.32;;
17340;SDS011;8788;49.930;8.660;2023-07-09T06:04:25;6.05;;;3.85;;
17340;SDS011;8788;49.930;8.660;2023-07-09T06:06:53;3.72;;;3.20;;
17340;SDS011;8788;49.930;8.660;2023-07-09T06:09:20;9.20;;;4.07;;
17340;SDS011;8788;49.930;8.660;2023-07-09T06:11:47;6.28;;;3.42;;
17340;SDS011;8788;49.930;8.660;2023-07-09T06:14:15;4.25;;;3.30;;
17340;SDS011;8788;49.930;8.660;2023-07-09T06:16:43;6.35;;;3.90;;
17340;SDS011;8788;49.930;8.660;2023-07-09T06:19:10;6.53;;;4.10;;
17340;SDS011;8788;49.930;8.660;2023-07-09T06:21:38;6.35;;;3.58;;
17340;SDS011;8788;49.930;8.660;2023-07-09T06:24:05;6.10;;;3.78;;
17340;SDS011;8788;49.930;8.660;2023-07-09T06:26:33;4.85;;;3.63;;
17340;SDS011;8788;49.930;8.660;2023-07-09T06:29:00;3.70;;;3.08;;
17340;SDS011;8788;49.930;8.660;2023-07-09T06:31:29;6.25;;;4.07;;
17340;SDS011;8788;49.930;8.660;2023-07-09T06:33:56;8.40;;;3.78;;
17340;SDS011;8788;49.930;8.660;2023-07-09T06:36:23;8.07;;;4.70;;
17340;SDS011;8788;49.930;8.660;2023-07-09T06:38:50;6.00;;;3.80;;
17340;SDS011;8788;49.930;8.660;2023-07-09T06:41:17;6.32;;;4.57;;
17340;SDS011;8788;49.930;8.660;2023-07-09T06:43:44;6.93;;;3.92;;
17340;SDS011;8788;49.930;8.660;2023-07-09T06:46:12;4.50;;;3.30;;
17340;SDS011;8788;49.930;8.660;2023-07-09T06:48:42;5.90;;;3.70;;
17340;SDS011;8788;49.930;8.660;2023-07-09T06:51:09;5.10;;;4.10;;
17340;SDS011;8788;49.930;8.660;2023-07-09T06:53:36;8.02;;;3.50;;
17340;SDS011;8788;49.930;8.660;2023-07-09T06:56:04;7.25;;;4.15;;
17340;SDS011;8788;49.930;8.660;2023-07-09T06:58:32;4.63;;;3.67;;
17340;SDS011;8788;49.930;8.660;2023-07-09T07:01:00;5.60;;;4.20;;
17340;SDS011;8788;49.930;8.660;2023-07-09T07:03:28;10.52;;;4.50;;
17340;SDS011;8788;49.930;8.660;2023-07-09T07:05:57;5.57;;;3.85;;
17340;SDS011;8788;49.930;8.660;2023-07-09T07:08:25;6.70;;;4.07;;
17340;SDS011;8788;49.930;8.660;2023-07-09T07:10:53;5.47;;;3.63;;
17340;SDS011;8788;49.930;8.660;2023-07-09T07:13:27;4.85;;;3.55;;
17340;SDS011;8788;49.930;8.660;2023-07-09T07:15:54;5.40;;;3.70;;
17340;SDS011;8788;49.930;8.660;2023-07-09T07:18:21;5.55;;;4.22;;
17340;SDS011;8788;49.930;8.660;2023-07-09T07:20:48;5.57;;;3.85;;
17340;SDS011;8788;49.930;8.660;2023-07-09T07:23:17;5.40;;;3.85;;
17340;SDS011;8788;49.930;8.660;2023-07-09T07:25:45;6.82;;;3.78;;
17340;SDS011;8788;49.930;8.660;2023-07-09T07:28:12;6.68;;;4.18;;
17340;SDS011;8788;49.930;8.660;2023-07-09T07:30:40;7.80;;;4.00;;
17340;SDS011;8788;49.930;8.660;2023-07-09T07:33:07;7.75;;;4.63;;
17340;SDS011;8788;49.930;8.660;2023-07-09T07:35:34;6.22;;;3.90;;
17340;SDS011;8788;49.930;8.660;2023-07-09T07:38:01;5.65;;;4.10;;
17340;SDS011;8788;49.930;8.660;2023-07-09T07:40:30;4.97;;;3.80;;
17340;SDS011;8788;49.930;8.660;2023-07-09T07:42:57;6.20;;;4.00;;
17340;SDS011;8788;49.930;8.660;2023-07-09T07:45:24;5.95;;;4.00;;
17340;SDS011;8788;49.930;8.660;2023-07-09T07:47:51;6.18;;;4.40;;
17340;SDS011;8788;49.930;8.660;2023-07-09T07:50:18;5.15;;;3.47;;
17340;SDS011;8788;49.930;8.660;2023-07-09T07:52:45;7.13;;;4.13;;
17340;SDS011;8788;49.930;8.660;2023-07-09T07:55:12;4.75;;;4.03;;
17340;SDS011;8788;49.930;8.660;2023-07-09T07:57:41;7.20;;;4.03;;
17340;SDS011;8788;49.930;8.660;2023-07-09T08:00:08;6.35;;;3.88;;
17340;SDS011;8788;49.930;8.660;2023-07-09T08:02:39;6.03;;;3.78;;
17340;SDS011;8788;49.930;8.660;2023-07-09T08:05:06;4.75;;;3.88;;
17340;SDS011;8788;49.930;8.660;2023-07-09T08:07:33;7.28;;;3.90;;
17340;SDS011;8788;49.930;8.660;2023-07-09T08:10:00;4.45;;;3.25;;
17340;SDS011;8788;49.930;8.660;2023-07-09T08:12:27;7.75;;;4.18;;
17340;SDS011;8788;49.930;8.660;2023-07-09T08:14:56;7.32;;;3.65;;
17340;SDS011;8788;49.930;8.660;2023-07-09T08:17:23;5.85;;;3.65;;
17340;SDS011;8788;49.930;8.660;2023-07-09T08:19:51;6.90;;;4.13;;
17340;SDS011;8788;49.930;8.660;2023-07-09T08:22:19;5.03;;;3.80;;
17340;SDS011;8788;49.930;8.660;2023-07-09T08:24:47;6.88;;;4.18;;
17340;SDS011;8788;49.930;8.660;2023-07-09T08:27:14;5.32;;;3.72;;
17340;SDS011;8788;49.930;8.660;2023-07-09T08:29:41;6.20;;;3.67;;
17340;SDS011;8788;49.930;8.660;2023-07-09T08:32:10;7.63;;;4.07;;
17340;SDS011;8788;49.930;8.660;2023-07-09T08:34:38;9.02;;;3.95;;
17340;SDS011;8788;49.930;8.660;2023-07-09T08:37:07;6.07;;;4.18;;
17340;SDS011;8788;49.930;8.660;2023-07-09T08:39:35;3.95;;;2.88;;
17340;SDS011;8788;49.930;8.660;2023-07-09T08:42:03;8.65;;;4.00;;
17340;SDS011;8788;49.930;8.660;2023-07-09T08:44:38;3.85;;;3.28;;
17340;SDS011;8788;49.930;8.660;2023-07-09T08:47:25;4.45;;;3.80;;
17340;SDS011;8788;49.930;8.660;2023-07-09T08:50:00;5.20;;;3.65;;
17340;SDS011;8788;49.930;8.660;2023-07-09T08:52:31;4.93;;;3.47;;
17340;SDS011;8788;49.930;8.660;2023-07-09T08:55:03;4.05;;;3.55;;
17340;SDS011;8788;49.930;8.660;2023-07-09T08:57:34;7.22;;;3.95;;
17340;SDS011;8788;49.930;8.660;2023-07-09T09:00:05;3.63;;;3.33;;
17340;SDS011;8788;49.930;8.660;2023-07-09T09:02:45;5.93;;;3.35;;
17340;SDS011;8788;49.930;8.660;2023-07-09T09:05:18;3.55;;;3.10;;
17340;SDS011;8788;49.930;8.660;2023-07-09T09:07:49;8.60;;;4.13;;
17340;SDS011;8788;49.930;8.660;2023-07-09T09:10:21;7.88;;;4.03;;
17340;SDS011;8788;49.930;8.660;2023-07-09T09:13:02;4.85;;;3.58;;
17340;SDS011;8788;49.930;8.660;2023-07-09T09:15:35;8.93;;;3.83;;
17340;SDS011;8788;49.930;8.660;2023-07-09T09:18:13;6.47;;;3.88;;
17340;SDS011;8788;49.930;8.660;2023-07-09T09:20:48;6.07;;;3.28;;
17340;SDS011;8788;49.930;8.660;2023-07-09T09:23:22;3.83;;;3.30;;
17340;SDS011;8788;49.930;8.660;2023-07-09T09:25:56;5.70;;;3.63;;
17340;SDS011;8788;49.930;8.660;2023-07-09T09:28:27;7.32;;;3.58;;
17340;SDS011;8788;49.930;8.660;2023-07-09T09:30:54;6.57;;;3.00;;
17340;SDS011;8788;49.930;8.660;2023-07-09T09:33:23;7.95;;;3.80;;
17340;SDS011;8788;49.930;8.660;2023-07-09T09:36:01;5.43;;;3.72;;
17340;SDS011;8788;49.930;8.660;2023-07-09T09:38:31;4.82;;;3.53;;
17340;SDS011;8788;49.930;8.660;2023-07-09T09:41:02;6.80;;;3.70;;
17340;SDS011;8788;49.930;8.660;2023-07-09T09:43:31;4.15;;;3.72;;
17340;SDS011;8788;49.930;8.660;2023-07-09T09:45:59;5.88;;;3.80;;
17340;SDS011;8788;49.930;8.660;2023-07-09T09:48:33;6.10;;;3.65;;
17340;SDS011;8788;49.930;8.660;2023-07-09T09:51:02;4.03;;;3.30;;
17340;SDS011;8788;49.930;8.660;2023-07-09T09:53:34;4.72;;;3.72;;
17340;SDS011;8788;49.930;8.660;2023-07-09T09:56:07;6.72;;;3.40;;
17340;SDS011;8788;49.930;8.660;2023-07-09T09:58:41;5.40;;;3.50;;
17340;SDS011;8788;49.930;8.660;2023-07-09T10:01:11;6.70;;;3.67;;
17340;SDS011;8788;49.930;8.660;2023-07-09T10:03:43;5.72;;;4.05;;
17340;SDS011;8788;49.930;8.660;2023-07-09T10:06:15;4.70;;;3.17;;
17340;SDS011;8788;49.930;8.660;2023-07-09T10:08:53;7.40;;;3.75;;
17340;SDS011;8788;49.930;8.660;2023-07-09T10:11:26;4.50;;;3.22;;
17340;SDS011;8788;49.930;8.660;2023-07-09T10:14:00;9.38;;;3.80;;
17340;SDS011;8788;49.930;8.660;2023-07-09T10:16:36;5.60;;;3.60;;
17340;SDS011;8788;49.930;8.660;2023-07-09T10:19:14;5.05;;;3.35;;
17340;SDS011;8788;49.930;8.660;2023-07-09T10:21:51;5.85;;;3.58;;
17340;SDS011;8788;49.930;8.660;2023-07-09T10:24:30;6.15;;;3.55;;
17340;SDS011;8788;49.930;8.660;2023-07-09T10:27:11;6.68;;;3.17;;
17340;SDS011;8788;49.930;8.660;2023-07-09T10:29:43;5.03;;;2.90;;
17340;SDS011;8788;49.930;8.660;2023-07-09T10:32:27;5.82;;;3.38;;
17340;SDS011;8788;49.930;8.660;2023-07-09T10:35:06;4.93;;;3.40;;
17340;SDS011;8788;49.930;8.660;2023-07-09T10:37:50;5.70;;;3.50;;
17340;SDS011;8788;49.930;8.660;2023-07-09T10:40:29;4.28;;;3.42;;
17340;SDS011;8788;49.930;8.660;2023-07-09T10:43:00;3.75;;;2.92;;
17340;SDS011;8788;49.930;8.660;2023-07-09T10:45:29;6.25;;;3.53;;
17340;SDS011;8788;49.930;8.660;2023-07-09T10:48:01;5.35;;;3.08;;
17340;SDS011;8788;49.930;8.660;2023-07-09T10:50:34;5.72;;;3.22;;
17340;SDS011;8788;49.930;8.660;2023-07-09T10:53:05;4.00;;;3.22;;
17340;SDS011;8788;49.930;8.660;2023-07-09T10:55:39;4.07;;;3.08;;
17340;SDS011;8788;49.930;8.660;2023-07-09T10:58:22;4.65;;;3.58;;
17340;SDS011;8788;49.930;8.660;2023-07-09T11:00:57;4.32;;;3.03;;
17340;SDS011;8788;49.930;8.660;2023-07-09T11:03:29;9.10;;;3.25;;
17340;SDS011;8788;49.930;8.660;2023-07-09T11:06:17;4.35;;;2.75;;
17340;SDS011;8788;49.930;8.660;2023-07-09T11:08:48;4.20;;;2.72;;
17340;SDS011;8788;49.930;8.660;2023-07-09T11:11:32;4.45;;;3.25;;
17340;SDS011;8788;49.930;8.660;2023-07-09T11:14:06;6.30;;;3.08;;
17340;SDS011;8788;49.930;8.660;2023-07-09T11:16:43;4.57;;;2.80;;
17340;SDS011;8788;49.930;8.660;2023-07-09T11:19:13;2.70;;;2.45;;
17340;SDS011;8788;49.930;8.660;2023-07-09T11:21:57;6.40;;;2.88;;
17340;SDS011;8788;49.930;8.660;2023-07-09T11:24:29;4.47;;;3.08;;
17340;SDS011;8788;49.930;8.660;2023-07-09T11:26:58;6.35;;;3.03;;
17340;SDS011;8788;49.930;8.660;2023-07-09T11:29:26;3.97;;;2.50;;
17340;SDS011;8788;49.930;8.660;2023-07-09T11:31:54;3.53;;;2.78;;
17340;SDS011;8788;49.930;8.660;2023-07-09T11:34:33;3.85;;;2.78;;
17340;SDS011;8788;49.930;8.660;2023-07-09T11:37:01;3.08;;;2.67;;
17340;SDS011;8788;49.930;8.660;2023-07-09T11:39:42;4.60;;;3.25;;
17340;SDS011;8788;49.930;8.660;2023-07-09T11:42:24;5.07;;;3.28;;
17340;SDS011;8788;49.930;8.660;2023-07-09T11:44:54;3.03;;;2.53;;
17340;SDS011;8788;49.930;8.660;2023-07-09T11:47:29;2.88;;;2.58;;
17340;SDS011;8788;49.930;8.660;2023-07-09T11:50:02;5.28;;;2.72;;
17340;SDS011;8788;49.930;8.660;2023-07-09T11:52:33;3.17;;;2.92;;
17340;SDS011;8788;49.930;8.660;2023-07-09T11:55:14;5.55;;;3.63;;
17340;SDS011;8788;49.930;8.660;2023-07-09T11:57:48;4.32;;;3.33;;
17340;SDS011;8788;49.930;8.660;2023-07-09T12:00:19;3.63;;;3.28;;
17340;SDS011;8788;49.930;8.660;2023-07-09T12:02:47;5.80;;;2.95;;
17340;SDS011;8788;49.930;8.660;2023-07-09T12:05:15;4.07;;;2.55;;
17340;SDS011;8788;49.930;8.660;2023-07-09T12:07:49;3.53;;;2.53;;
17340;SDS011;8788;49.930;8.660;2023-07-09T12:10:20;3.85;;;2.72;;
17340;SDS011;8788;49.930;8.660;2023-07-09T12:12:53;4.22;;;2.88;;
17340;SDS011;8788;49.930;8.660;2023-07-09T12:15:22;5.53;;;3.40;;
17340;SDS011;8788;49.930;8.660;2023-07-09T12:17:54;4.55;;;3.00;;
17340;SDS011;8788;49.930;8.660;2023-07-09T12:20:23;6.22;;;2.95;;
17340;SDS011;8788;49.930;8.660;2023-07-09T12:22:51;6.35;;;3.13;;
17340;SDS011;8788;49.930;8.660;2023-07-09T12:25:19;4.40;;;3.00;;
17340;SDS011;8788;49.930;8.660;2023-07-09T12:27:49;5.20;;;3.28;;
17340;SDS011;8788;49.930;8.660;2023-07-09T12:30:16;6.40;;;2.92;;
17340;SDS011;8788;49.930;8.660;2023-07-09T12:32:44;4.40;;;2.92;;
17340;SDS011;8788;49.930;8.660;2023-07-09T12:35:12;3.30;;;2.72;;
17340;SDS011;8788;49.930;8.660;2023-07-09T12:37:41;3.47;;;2.67;;
17340;SDS011;8788;49.930;8.660;2023-07-09T12:40:15;4.93;;;3.13;;
17340;SDS011;8788;49.930;8.660;2023-07-09T12:42:45;4.57;;;2.83;;
17340;SDS011;8788;49.930;8.660;2023-07-09T12:45:17;6.80;;;2.78;;
17340;SDS011;8788;49.930;8.660;2023-07-09T12:47:46;4.82;;;3.28;;
17340;SDS011;8788;49.930;8.660;2023-07-09T12:50:19;3.30;;;2.90;;
17340;SDS011;8788;49.930;8.660;2023-07-09T12:52:52;4.18;;;3.00;;
17340;SDS011;8788;49.930;8.660;2023-07-09T12:55:24;4.80;;;3.05;;
17340;SDS011;8788;49.930;8.660;2023-07-09T12:57:54;3.80;;;2.60;;
17340;SDS011;8788;49.930;8.660;2023-07-09T13:00:23;4.75;;;2.95;;
17340;SDS011;8788;49.930;8.660;2023-07-09T13:02:55;3.90;;;3.20;;
17340;SDS011;8788;49.930;8.660;2023-07-09T13:05:24;4.72;;;2.83;;
17340;SDS011;8788;49.930;8.660;2023-07-09T13:07:53;8.60;;;2.95;;
17340;SDS011;8788;49.930;8.660;2023-07-09T13:10:22;4.40;;;3.13;;
17340;SDS011;8788;49.930;8.660;2023-07-09T13:12:53;3.95;;;3.03;;
17340;SDS011;8788;49.930;8.660;2023-07-09T13:15:26;4.53;;;2.97;;
17340;SDS011;8788;49.930;8.660;2023-07-09T13:17:58;4.28;;;3.20;;
17340;SDS011;8788;49.930;8.660;2023-07-09T13:20:27;3.85;;;3.25;;
17340;SDS011;8788;49.930;8.660;2023-07-09T13:22:54;4.00;;;2.63;;
17340;SDS011;8788;49.930;8.660;2023-07-09T13:25:21;5.32;;;3.05;;
17340;SDS011;8788;49.930;8.660;2023-07-09T13:27:50;3.42;;;2.95;;
17340;SDS011;8788;49.930;8.660;2023-07-09T13:30:17;4.60;;;2.80;;
17340;SDS011;8788;49.930;8.660;2023-07-09T13:32:45;4.20;;;3.10;;
17340;SDS011;8788;49.930;8.660;2023-07-09T13:35:14;3.45;;;3.13;;
17340;SDS011;8788;49.930;8.660;2023-07-09T13:37:43;6.40;;;2.95;;
17340;SDS011;8788;49.930;8.660;2023-07-09T13:40:11;5.55;;;3.30;;
17340;SDS011;8788;49.930;8.660;2023-07-09T13:42:41;3.28;;;2.97;;
17340;SDS011;8788;49.930;8.660;2023-07-09T13:45:16;5.75;;;3.50;;
17340;SDS011;8788;49.930;8.660;2023-07-09T13:47:45;4.57;;;3.45;;
17340;SDS011;8788;49.930;8.660;2023-07-09T13:50:12;4.93;;;3.60;;
17340;SDS011;8788;49.930;8.660;2023-07-09T13:52:41;4.50;;;3.47;;
17340;SDS011;8788;49.930;8.660;2023-07-09T13:55:14;5.80;;;3.20;;
17340;SDS011;8788;49.930;8.660;2023-07-09T13:57:45;6.57;;;3.78;;
17340;SDS011;8788;49.930;8.660;2023-07-09T14:00:13;4.55;;;3.17;;
17340;SDS011;8788;49.930;8.660;2023-07-09T14:02:40;3.58;;;3.28;;
17340;SDS011;8788;49.930;8.660;2023-07-09T14:05:08;4.22;;;3.28;;
17340;SDS011;8788;49.930;8.660;2023-07-09T14:07:37;4.13;;;3.33;;
17340;SDS011;8788;49.930;8.660;2023-07-09T14:10:07;3.35;;;3.03;;
17340;SDS011;8788;49.930;8.660;2023-07-09T14:12:38;7.30;;;2.97;;
17340;SDS011;8788;49.930;8.660;2023-07-09T14:15:11;5.68;;;3.25;;
17340;SDS011;8788;49.930;8.660;2023-07-09T14:17:41;4.60;;;3.47;;
17340;SDS011;8788;49.930;8.660;2023-07-09T14:20:10;5.72;;;3.13;;
17340;SDS011;8788;49.930;8.660;2023-07-09T14:22:39;4.28;;;3.47;;
17340;SDS011;8788;49.930;8.660;2023-07-09T14:25:09;4.68;;;3.67;;
17340;SDS011;8788;49.930;8.660;2023-07-09T14:27:42;3.80;;;3.33;;
17340;SDS011;8788;49.930;8.660;2023-07-09T14:30:13;9.68;;;4.45;;
17340;SDS011;8788;49.930;8.660;2023-07-09T14:32:41;5.13;;;3.00;;
17340;SDS011;8788;49.930;8.660;2023-07-09T14:35:12;3.33;;;2.42;;
17340;SDS011;8788;49.930;8.660;2023-07-09T14:37:41;3.53;;;3.00;;
17340;SDS011;8788;49.930;8.660;2023-07-09T14:40:08;3.47;;;2.85;;
17340;SDS011;8788;49.930;8.660;2023-07-09T14:42:36;4.25;;;2.90;;
17340;SDS011;8788;49.930;8.660;2023-07-09T14:45:04;4.97;;;3.30;;
17340;SDS011;8788;49.930;8.660;2023-07-09T14:47:42;2.70;;;2.50;;
17340;SDS011;8788;49.930;8.660;2023-07-09T14:50:10;4.22;;;3.13;;
17340;SDS011;8788;49.930;8.660;2023-07-09T14:52:37;4.88;;;2.83;;
17340;SDS011;8788;49.930;8.660;2023-07-09T14:55:05;4.68;;;3.13;;
17340;SDS011;8788;49.930;8.660;2023-07-09T14:57:34;4.38;;;3.30;;
17340;SDS011;8788;49.930;8.660;2023-07-09T15:00:02;3.85;;;2.20;;
17340;SDS011;8788;49.930;8.660;2023-07-09T15:02:31;3.80;;;2.40;;
17340;SDS011;8788;49.930;8.660;2023-07-09T15:05:03;4.90;;;3.10;;
17340;SDS011;8788;49.930;8.660;2023-07-09T15:07:32;4.75;;;3.03;;
17340;SDS011;8788;49.930;8.660;2023-07-09T15:09:59;5.05;;;2.92;;
17340;SDS011;8788;49.930;8.660;2023-07-09T15:12:30;4.97;;;3.08;;
17340;SDS011;8788;49.930;8.660;2023-07-09T15:15:01;5.75;;;2.97;;
17340;SDS011;8788;49.930;8.660;2023-07-09T15:17:38;4.57;;;2.97;;